Time;durP1;ratioP1;P1;durP2;ratioP2;P2;SDS_P1;SDS_P2;PMS_P1;PMS_P2;Temp;Humidity;BMP_temperature;BMP_pressure;BME280_temperature;BME280_humidity;BME280_pressure;Samples;Min_cycle;Max_cycle;Signal;HPM_P1;HPM_P2
2021/08/19 00:00:41;;;;;;;2.23;2.13;;;17.60;99.90;;;;;;5011122;28;20174;-65
2021/08/19 00:03:07;;;;;;;2.87;1.93;;;17.70;99.90;;;;;;5012109;28;20430;-64
2021/08/19 00:05:33;;;;;;;1.90;1.80;;;17.60;99.90;;;;;;4992480;28;20198;-65
2021/08/19 00:07:59;;;;;;;5.57;2.30;;;17.70;99.90;;;;;;4992340;28;20207;-65
2021/08/19 00:10:24;;;;;;;2.07;1.73;;;17.70;99.90;;;;;;4996992;28;20908;-65
2021/08/19 00:12:50;;;;;;;2.03;1.93;;;17.70;99.90;;;;;;5015889;28;20214;-65
2021/08/19 00:15:15;;;;;;;2.00;1.90;;;17.60;99.90;;;;;;5015610;28;20682;-65
2021/08/19 00:17:41;;;;;;;2.43;2.23;;;17.60;99.90;;;;;;5004887;28;20237;-65
2021/08/19 00:20:07;;;;;;;2.23;2.13;;;17.60;99.90;;;;;;5004410;28;20233;-64
2021/08/19 00:22:33;;;;;;;2.03;1.93;;;17.50;99.90;;;;;;5015720;28;20218;-65
2021/08/19 00:24:59;;;;;;;2.10;1.93;;;17.50;99.90;;;;;;5015728;28;20445;-65
2021/08/19 00:27:25;;;;;;;1.77;1.67;;;17.40;99.90;;;;;;5015704;28;20195;-65
2021/08/19 00:29:51;;;;;;;2.00;1.90;;;17.40;99.90;;;;;;5006356;28;20434;-65
2021/08/19 00:32:16;;;;;;;2.40;1.80;;;17.50;99.90;;;;;;4995959;28;20218;-64
2021/08/19 00:34:42;;;;;;;1.73;1.63;;;17.40;99.90;;;;;;4995904;28;20547;-65
2021/08/19 00:37:08;;;;;;;2.00;1.63;;;17.50;99.90;;;;;;4995898;28;20172;-64
2021/08/19 00:39:34;;;;;;;2.97;2.10;;;17.30;99.90;;;;;;5003593;28;20182;-66
2021/08/19 00:42:00;;;;;;;1.80;1.70;;;17.30;99.90;;;;;;5015422;28;20935;-65
2021/08/19 00:44:25;;;;;;;1.90;1.80;;;17.30;99.90;;;;;;5002854;28;20426;-65
2021/08/19 00:46:51;;;;;;;1.53;1.43;;;17.30;99.90;;;;;;4995786;28;20258;-65
2021/08/19 00:49:17;;;;;;;1.77;1.50;;;17.20;99.90;;;;;;5010543;28;20203;-65
2021/08/19 00:51:43;;;;;;;1.87;1.77;;;17.30;99.90;;;;;;5014830;28;20206;-65
2021/08/19 00:54:15;;;;;;;2.50;1.70;;;17.30;99.90;;;;;;5011990;28;20184;-65
2021/08/19 00:56:41;;;;;;;2.17;1.97;;;17.30;99.90;;;;;;4995475;28;20434;-65
2021/08/19 00:59:08;;;;;;;1.43;1.33;;;17.40;99.90;;;;;;5004325;28;20438;-65
2021/08/19 01:01:34;;;;;;;1.70;1.60;;;17.40;99.90;;;;;;5012828;28;20225;-64
2021/08/19 01:04:00;;;;;;;1.70;1.60;;;17.40;99.90;;;;;;5014679;28;20438;-65
2021/08/19 01:06:26;;;;;;;1.70;1.60;;;17.30;99.90;;;;;;5015001;28;20417;-65
2021/08/19 01:08:54;;;;;;;1.60;1.50;;;17.20;99.90;;;;;;5014343;28;21040;-65
2021/08/19 01:11:21;;;;;;;2.00;1.90;;;17.20;99.90;;;;;;5013461;28;20197;-65
2021/08/19 01:13:47;;;;;;;4.40;1.90;;;17.20;99.90;;;;;;5014510;28;20465;-64
2021/08/19 01:16:15;;;;;;;1.70;1.60;;;17.20;99.90;;;;;;5014479;28;21011;-64
2021/08/19 01:18:44;;;;;;;2.20;1.60;;;17.20;99.90;;;;;;5014458;28;20425;-65
2021/08/19 01:21:10;;;;;;;1.60;1.50;;;17.30;99.90;;;;;;5014205;28;20814;-65
2021/08/19 01:23:36;;;;;;;1.60;1.50;;;17.30;99.90;;;;;;5012789;28;20491;-65
2021/08/19 01:26:05;;;;;;;1.87;1.77;;;17.30;99.90;;;;;;5014311;28;20847;-65
2021/08/19 01:28:32;;;;;;;1.60;1.50;;;17.20;99.90;;;;;;5007255;28;20219;-66
2021/08/19 01:30:57;;;;;;;1.73;1.63;;;17.20;99.90;;;;;;5011328;28;20453;-66
2021/08/19 01:33:24;;;;;;;2.07;1.83;;;17.20;99.90;;;;;;5014709;28;20418;-65
2021/08/19 01:35:50;;;;;;;2.40;2.10;;;17.20;99.90;;;;;;5014315;28;20178;-66
2021/08/19 01:38:16;;;;;;;1.63;1.53;;;17.20;99.90;;;;;;5014292;28;20542;-65
2021/08/19 01:40:41;;;;;;;1.40;1.30;;;17.10;99.90;;;;;;5011947;28;20533;-65
2021/08/19 01:43:11;;;;;;;1.87;1.73;;;17.10;99.90;;;;;;5012731;28;20175;-65
2021/08/19 01:45:36;;;;;;;1.60;1.50;;;17.10;99.90;;;;;;4994633;28;20195;-65
2021/08/19 01:48:02;;;;;;;3.00;1.80;;;17.10;99.90;;;;;;5010842;28;20457;-65
2021/08/19 01:50:27;;;;;;;1.47;1.37;;;17.00;99.90;;;;;;4997893;28;20180;-65
2021/08/19 01:52:53;;;;;;;1.70;1.60;;;17.20;99.90;;;;;;4998225;28;20542;-65
2021/08/19 01:55:19;;;;;;;2.10;1.53;;;17.20;99.90;;;;;;4994449;28;20179;-65
2021/08/19 01:57:44;;;;;;;1.90;1.80;;;17.30;99.90;;;;;;4994459;28;20180;-64
2021/08/19 02:00:10;;;;;;;2.07;1.43;;;17.20;99.90;;;;;;4999125;28;20177;-65
2021/08/19 02:02:36;;;;;;;1.53;1.43;;;17.20;99.90;;;;;;5013846;28;20625;-65
2021/08/19 02:05:01;;;;;;;1.70;1.60;;;17.20;99.90;;;;;;5013826;28;20781;-65
2021/08/19 02:07:27;;;;;;;2.10;1.43;;;17.20;99.90;;;;;;5013793;28;20226;-64
2021/08/19 02:09:52;;;;;;;1.90;1.80;;;17.20;99.90;;;;;;5013495;28;20214;-65
2021/08/19 02:12:18;;;;;;;1.40;1.30;;;17.20;99.90;;;;;;4994902;28;20692;-65
2021/08/19 02:14:43;;;;;;;1.73;1.50;;;17.10;99.90;;;;;;4994054;28;20250;-65
2021/08/19 02:17:09;;;;;;;1.80;1.70;;;17.10;99.90;;;;;;4994114;28;20246;-65
2021/08/19 02:19:34;;;;;;;1.90;1.80;;;17.00;99.90;;;;;;5005912;28;20181;-64
2021/08/19 02:22:00;;;;;;;2.07;1.97;;;17.00;99.90;;;;;;5013432;28;20194;-65
2021/08/19 02:24:25;;;;;;;2.17;1.63;;;17.00;99.90;;;;;;5013527;28;20285;-64
2021/08/19 02:26:51;;;;;;;2.40;1.87;;;16.90;99.90;;;;;;5013507;28;20171;-65
2021/08/19 02:29:16;;;;;;;2.17;1.97;;;17.00;99.90;;;;;;5012971;28;20356;-65
2021/08/19 02:31:42;;;;;;;2.20;2.10;;;17.00;99.90;;;;;;5012382;28;20191;-65
2021/08/19 02:34:08;;;;;;;1.80;1.70;;;17.00;99.90;;;;;;5013276;28;20257;-65
2021/08/19 02:36:34;;;;;;;1.90;1.70;;;17.00;99.90;;;;;;5013367;28;20660;-65
2021/08/19 02:38:59;;;;;;;2.10;2.00;;;16.90;99.90;;;;;;5012938;28;20428;-65
2021/08/19 02:41:25;;;;;;;2.13;1.70;;;16.90;99.90;;;;;;5013153;28;20261;-65
2021/08/19 02:43:50;;;;;;;2.00;1.90;;;16.90;99.90;;;;;;5012936;28;20730;-64
2021/08/19 02:46:16;;;;;;;2.53;1.93;;;16.90;99.90;;;;;;5013101;28;20262;-65
2021/08/19 02:48:42;;;;;;;2.20;2.10;;;16.90;99.90;;;;;;5012490;28;20233;-65
2021/08/19 02:51:07;;;;;;;2.20;2.00;;;16.90;99.90;;;;;;5012877;28;20634;-65
2021/08/19 02:53:33;;;;;;;2.00;1.90;;;17.00;99.90;;;;;;5013028;28;20174;-64
2021/08/19 02:55:59;;;;;;;1.73;1.63;;;16.90;99.90;;;;;;5011529;28;20611;-65
2021/08/19 02:58:24;;;;;;;2.40;2.20;;;16.90;99.90;;;;;;5012636;28;20179;-64
2021/08/19 03:00:50;;;;;;;2.30;2.10;;;16.90;99.90;;;;;;5012561;28;20198;-65
2021/08/19 03:03:15;;;;;;;2.00;1.80;;;16.90;99.90;;;;;;5012941;28;20690;-65
2021/08/19 03:05:41;;;;;;;2.60;1.93;;;16.90;99.90;;;;;;5013024;28;20529;-65
2021/08/19 03:08:06;;;;;;;2.10;1.90;;;16.90;99.90;;;;;;5012658;28;20190;-65
2021/08/19 03:10:32;;;;;;;2.50;2.30;;;16.80;99.90;;;;;;5011731;28;20270;-65
2021/08/19 03:12:57;;;;;;;2.50;2.30;;;16.80;99.90;;;;;;5012360;28;20182;-65
2021/08/19 03:15:23;;;;;;;1.90;1.80;;;16.90;99.90;;;;;;5012332;28;20176;-64
2021/08/19 03:17:48;;;;;;;2.70;2.50;;;16.90;99.90;;;;;;5012571;28;20178;-65
2021/08/19 03:20:14;;;;;;;3.13;2.83;;;16.90;99.90;;;;;;5012214;28;20179;-64
2021/08/19 03:22:39;;;;;;;2.07;1.80;;;16.90;99.90;;;;;;5012252;28;20210;-64
2021/08/19 03:25:08;;;;;;;2.40;2.00;;;16.90;99.90;;;;;;5012371;28;20183;-64
2021/08/19 03:27:34;;;;;;;2.20;2.03;;;16.90;99.90;;;;;;5012406;28;20186;-65
2021/08/19 03:30:00;;;;;;;2.10;1.90;;;17.00;99.90;;;;;;5000037;28;20438;-65
2021/08/19 03:32:25;;;;;;;2.13;2.03;;;17.00;99.90;;;;;;4992659;28;20200;-65
2021/08/19 03:34:51;;;;;;;3.23;2.27;;;17.00;99.90;;;;;;4992706;28;20548;-64
2021/08/19 03:37:16;;;;;;;2.23;2.10;;;16.90;99.90;;;;;;4992484;28;20164;-65
2021/08/19 03:39:42;;;;;;;2.07;1.97;;;16.80;99.90;;;;;;4992424;28;20171;-65
2021/08/19 03:42:08;;;;;;;2.10;2.00;;;16.90;99.90;;;;;;4992630;28;20700;-66
2021/08/19 03:44:33;;;;;;;2.63;2.43;;;16.90;99.90;;;;;;4992284;28;20187;-65
2021/08/19 03:46:59;;;;;;;2.97;2.70;;;16.90;99.90;;;;;;4992506;28;20542;-65
2021/08/19 03:49:24;;;;;;;2.37;2.27;;;16.90;99.90;;;;;;4991720;28;20248;-65
2021/08/19 03:51:50;;;;;;;2.10;2.00;;;16.80;99.90;;;;;;4992508;28;20330;-65
2021/08/19 03:54:16;;;;;;;2.20;2.10;;;16.80;99.90;;;;;;4992708;28;20665;-66
2021/08/19 03:56:41;;;;;;;1.97;1.87;;;16.90;99.90;;;;;;4998083;28;20174;-66
2021/08/19 03:59:08;;;;;;;2.60;2.40;;;17.00;99.90;;;;;;5011485;28;20182;-65
2021/08/19 04:01:35;;;;;;;2.13;1.87;;;17.00;99.90;;;;;;5010844;28;20230;-65
2021/08/19 04:04:00;;;;;;;2.67;2.47;;;17.00;99.90;;;;;;5011801;28;20430;-64
2021/08/19 04:06:26;;;;;;;2.73;2.53;;;17.00;99.90;;;;;;5011768;28;20436;-65
2021/08/19 04:08:51;;;;;;;2.23;2.13;;;17.00;99.90;;;;;;5011258;28;20244;-65
2021/08/19 04:11:17;;;;;;;2.63;2.43;;;16.90;99.90;;;;;;5011987;28;20210;-65
2021/08/19 04:13:42;;;;;;;2.50;2.30;;;16.90;99.90;;;;;;4997058;28;20223;-64
2021/08/19 04:16:08;;;;;;;2.30;2.10;;;16.90;99.90;;;;;;4992284;28;20275;-66
2021/08/19 04:18:33;;;;;;;2.17;2.07;;;16.90;99.90;;;;;;5005338;28;20367;-65
2021/08/19 04:21:00;;;;;;;4.77;2.10;;;16.90;99.90;;;;;;5011929;28;20697;-65
2021/08/19 04:23:26;;;;;;;2.30;2.10;;;16.90;99.90;;;;;;4999020;28;20554;-64
2021/08/19 04:25:51;;;;;;;2.80;2.60;;;16.90;99.90;;;;;;4993407;28;20442;-66
2021/08/19 04:28:17;;;;;;;3.13;2.83;;;16.90;99.90;;;;;;4987494;28;20663;-66
2021/08/19 04:30:42;;;;;;;2.40;2.20;;;16.90;99.90;;;;;;5009364;28;20229;-64
2021/08/19 04:33:08;;;;;;;2.23;2.10;;;16.80;99.90;;;;;;5011866;28;20215;-64
2021/08/19 04:35:33;;;;;;;2.40;2.20;;;16.80;99.90;;;;;;5010171;28;20190;-65
2021/08/19 04:37:59;;;;;;;6.03;3.70;;;16.90;99.90;;;;;;4994155;28;20184;-64
2021/08/19 04:40:25;;;;;;;3.40;2.90;;;16.80;99.90;;;;;;4992176;28;20650;-65
2021/08/19 04:42:50;;;;;;;2.23;1.90;;;16.80;99.90;;;;;;4999223;28;20341;-66
2021/08/19 04:45:16;;;;;;;2.80;2.47;;;16.80;99.90;;;;;;4993046;28;20187;-65
2021/08/19 04:47:41;;;;;;;2.67;2.43;;;16.80;99.90;;;;;;4992826;28;20563;-64
2021/08/19 04:50:08;;;;;;;2.20;2.10;;;16.70;99.90;;;;;;4992766;28;20219;-65
2021/08/19 04:52:33;;;;;;;2.60;2.40;;;16.70;99.90;;;;;;5003261;28;20195;-64
2021/08/19 04:54:59;;;;;;;3.67;3.13;;;16.70;99.90;;;;;;5001913;28;20961;-65
2021/08/19 04:57:24;;;;;;;2.37;2.17;;;16.70;99.90;;;;;;4998798;28;20179;-64
2021/08/19 04:59:50;;;;;;;2.40;2.20;;;16.60;99.90;;;;;;4995202;28;20721;-65
2021/08/19 05:02:15;;;;;;;3.80;2.13;;;16.60;99.90;;;;;;5006242;28;20285;-65
2021/08/19 05:04:41;;;;;;;4.60;1.90;;;16.60;99.90;;;;;;4996419;28;20222;-64
2021/08/19 05:07:06;;;;;;;1.83;1.73;;;16.60;99.90;;;;;;4996696;28;20179;-65
2021/08/19 05:09:32;;;;;;;2.20;2.00;;;16.60;99.90;;;;;;4998399;28;20180;-64
2021/08/19 05:11:57;;;;;;;4.23;3.60;;;16.50;99.90;;;;;;4995133;28;20195;-65
2021/08/19 05:14:23;;;;;;;4.27;2.70;;;16.50;99.90;;;;;;4995102;28;20668;-65
2021/08/19 05:16:49;;;;;;;2.30;2.20;;;16.50;99.90;;;;;;4995183;28;20668;-64
2021/08/19 05:19:14;;;;;;;2.53;2.33;;;16.50;99.90;;;;;;4993501;28;20176;-64
2021/08/19 05:21:40;;;;;;;2.80;2.13;;;16.50;99.90;;;;;;4994845;28;20195;-64
2021/08/19 05:24:06;;;;;;;2.40;1.97;;;16.50;99.90;;;;;;4995057;28;20179;-64
2021/08/19 05:26:31;;;;;;;2.13;1.90;;;16.60;99.90;;;;;;4999557;28;20194;-64
2021/08/19 05:28:57;;;;;;;2.90;2.40;;;16.60;99.90;;;;;;5006362;28;20293;-64
2021/08/19 05:31:22;;;;;;;2.97;2.40;;;16.60;99.90;;;;;;5014449;28;20187;-64
2021/08/19 05:33:48;;;;;;;6.13;2.20;;;16.60;99.90;;;;;;5014188;28;20193;-64
2021/08/19 05:36:15;;;;;;;2.00;1.90;;;16.70;99.90;;;;;;5013925;28;20171;-65
2021/08/19 05:38:41;;;;;;;1.80;1.70;;;16.70;99.90;;;;;;5014023;28;20430;-65
2021/08/19 05:41:07;;;;;;;2.87;2.60;;;16.80;99.90;;;;;;5013596;28;20465;-65
2021/08/19 05:43:33;;;;;;;1.87;1.77;;;16.80;99.90;;;;;;5007563;28;20225;-65
2021/08/19 05:45:59;;;;;;;1.93;1.83;;;16.90;99.90;;;;;;5008868;28;20187;-65
2021/08/19 05:48:24;;;;;;;2.07;1.53;;;16.90;99.90;;;;;;5004633;28;20460;-65
2021/08/19 05:50:50;;;;;;;2.53;2.27;;;17.00;99.90;;;;;;4992792;28;20530;-65
2021/08/19 05:53:16;;;;;;;2.70;2.03;;;17.10;99.90;;;;;;4994181;28;20171;-65
2021/08/19 05:55:41;;;;;;;3.33;2.00;;;17.10;99.90;;;;;;4992278;28;20481;-65
2021/08/19 05:58:07;;;;;;;2.00;1.83;;;17.20;99.90;;;;;;4994412;28;20179;-65
2021/08/19 06:00:34;;;;;;;2.13;1.93;;;17.30;99.90;;;;;;4995992;28;20233;-64
2021/08/19 06:03:00;;;;;;;3.83;3.30;;;17.30;99.90;;;;;;5000418;28;20601;-65
2021/08/19 06:05:25;;;;;;;5.20;4.57;;;17.30;99.90;;;;;;4993300;28;20473;-64
2021/08/19 06:07:51;;;;;;;2.03;1.93;;;17.30;99.90;;;;;;4993808;28;20707;-65
2021/08/19 06:10:16;;;;;;;1.90;1.80;;;17.30;99.90;;;;;;4993914;28;20184;-65
2021/08/19 06:12:42;;;;;;;2.13;1.93;;;17.40;99.90;;;;;;4994039;28;20195;-65
2021/08/19 06:15:09;;;;;;;2.20;2.00;;;17.50;99.90;;;;;;5005734;28;20603;-64
2021/08/19 06:17:34;;;;;;;2.60;2.13;;;17.60;99.90;;;;;;5013623;28;20182;-65
2021/08/19 06:20:01;;;;;;;2.30;1.63;;;17.70;99.90;;;;;;5013120;28;20436;-65
2021/08/19 06:22:27;;;;;;;2.03;1.93;;;17.80;99.90;;;;;;5013578;28;20858;-65
2021/08/19 06:24:52;;;;;;;2.30;2.00;;;18.00;99.90;;;;;;5013493;28;20421;-65
2021/08/19 06:27:18;;;;;;;2.47;2.20;;;18.10;99.90;;;;;;5012312;28;20724;-66
2021/08/19 06:29:43;;;;;;;1.93;1.73;;;18.30;99.90;;;;;;5011754;28;20175;-65
2021/08/19 06:32:09;;;;;;;2.10;2.00;;;18.20;99.90;;;;;;5013426;28;20190;-65
2021/08/19 06:34:35;;;;;;;6.57;2.10;;;18.30;99.90;;;;;;5009383;28;20263;-65
2021/08/19 06:37:01;;;;;;;2.13;2.03;;;18.30;99.90;;;;;;4993683;28;20191;-65
2021/08/19 06:39:27;;;;;;;1.97;1.87;;;18.30;99.90;;;;;;4993450;28;20653;-64
2021/08/19 06:41:53;;;;;;;2.00;1.90;;;18.30;99.90;;;;;;4993596;28;20475;-65
2021/08/19 06:44:18;;;;;;;2.50;2.23;;;18.10;99.90;;;;;;4993441;28;20182;-65
2021/08/19 06:46:44;;;;;;;2.10;2.00;;;18.30;99.90;;;;;;4993453;28;20488;-65
2021/08/19 06:49:09;;;;;;;2.47;2.27;;;18.40;99.90;;;;;;4994118;28;20199;-65
2021/08/19 06:51:35;;;;;;;2.50;2.30;;;18.50;99.90;;;;;;4993313;28;20187;-65
2021/08/19 06:54:00;;;;;;;2.30;1.87;;;18.50;99.90;;;;;;4993130;28;20176;-65
2021/08/19 06:56:27;;;;;;;1.80;1.70;;;18.60;99.90;;;;;;4993268;28;20168;-65
2021/08/19 06:58:52;;;;;;;2.30;2.20;;;18.60;99.90;;;;;;4993049;28;20167;-65
2021/08/19 07:01:18;;;;;;;3.80;1.83;;;18.80;99.90;;;;;;4993013;28;20824;-64
2021/08/19 07:03:43;;;;;;;2.50;2.17;;;18.90;99.90;;;;;;4993192;28;20186;-65
2021/08/19 07:06:17;;;;;;;1.87;1.77;;;19.00;99.90;;;;;;4993225;28;20179;-65
2021/08/19 07:08:43;;;;;;;1.90;1.80;;;19.10;99.90;;;;;;4995279;28;20253;-64
2021/08/19 07:11:09;;;;;;;3.13;2.37;;;19.20;99.90;;;;;;5012767;28;20457;-65
2021/08/19 07:13:35;;;;;;;1.90;1.80;;;19.10;99.90;;;;;;5012688;28;20430;-64
2021/08/19 07:16:02;;;;;;;2.00;1.90;;;19.00;99.90;;;;;;5012586;28;20476;-65
2021/08/19 07:18:27;;;;;;;1.90;1.80;;;19.10;99.90;;;;;;4992334;28;20207;-64
2021/08/19 07:20:53;;;;;;;2.03;1.93;;;19.20;99.90;;;;;;4992923;28;20466;-65
2021/08/19 07:23:18;;;;;;;2.70;2.50;;;19.30;99.90;;;;;;4992943;28;20175;-65
2021/08/19 07:25:44;;;;;;;1.80;1.70;;;19.40;99.90;;;;;;4992975;28;20227;-65
2021/08/19 07:28:10;;;;;;;2.63;2.33;;;19.40;99.90;;;;;;4992739;28;20198;-64
2021/08/19 07:30:35;;;;;;;1.93;1.70;;;19.40;99.90;;;;;;4992430;28;20601;-65
2021/08/19 07:33:01;;;;;;;2.37;2.17;;;19.70;99.90;;;;;;4996044;28;20190;-65
2021/08/19 07:35:28;;;;;;;2.43;2.23;;;20.00;99.90;;;;;;4992596;28;20180;-65
2021/08/19 07:37:55;;;;;;;2.27;2.07;;;20.10;99.90;;;;;;4992220;28;20183;-65
2021/08/19 07:40:23;;;;;;;4.43;2.00;;;20.30;99.90;;;;;;4992514;28;20771;-65
2021/08/19 07:42:53;;;;;;;2.03;1.83;;;20.40;99.90;;;;;;4992571;28;20438;-65
2021/08/19 07:45:21;;;;;;;1.87;1.77;;;20.70;99.90;;;;;;4993555;28;20449;-64
2021/08/19 07:47:46;;;;;;;2.00;1.90;;;20.90;99.90;;;;;;4992811;28;20530;-65
2021/08/19 07:50:13;;;;;;;4.67;2.27;;;21.00;99.90;;;;;;4991829;28;20431;-65
2021/08/19 07:52:39;;;;;;;1.60;1.50;;;21.20;99.90;;;;;;4992478;28;20196;-65
2021/08/19 07:55:07;;;;;;;2.00;1.90;;;21.00;99.90;;;;;;4992561;28;20417;-65
2021/08/19 07:57:50;;;;;;;2.13;2.03;;;21.30;99.90;;;;;;4992367;28;20440;-64
2021/08/19 08:00:25;;;;;;;2.23;2.03;;;21.40;99.90;;;;;;4992092;28;20920;-65
2021/08/19 08:02:51;;;;;;;2.30;2.10;;;21.50;99.90;;;;;;4992858;28;20466;-65
2021/08/19 08:05:17;;;;;;;2.37;2.17;;;21.70;99.90;;;;;;5005382;28;20438;-65
2021/08/19 08:07:43;;;;;;;2.00;1.90;;;21.90;99.90;;;;;;4992252;28;20450;-65
2021/08/19 08:10:09;;;;;;;2.50;2.00;;;22.20;99.90;;;;;;4992553;28;20184;-65
2021/08/19 08:12:34;;;;;;;1.90;1.70;;;22.50;99.90;;;;;;4990803;28;20453;-64
2021/08/19 08:15:00;;;;;;;1.93;1.83;;;22.40;99.90;;;;;;4992488;28;20422;-64
2021/08/19 08:17:26;;;;;;;4.77;1.90;;;22.20;99.90;;;;;;4992296;28;20542;-64
2021/08/19 08:19:51;;;;;;;1.83;1.70;;;22.40;99.90;;;;;;4996163;28;20240;-64
2021/08/19 08:22:18;;;;;;;1.77;1.63;;;22.40;99.90;;;;;;5011507;28;20203;-64
2021/08/19 08:24:44;;;;;;;1.80;1.70;;;22.40;99.90;;;;;;5011828;28;20167;-64
2021/08/19 08:27:09;;;;;;;2.50;2.30;;;22.60;99.90;;;;;;5011719;28;20418;-65
2021/08/19 08:29:36;;;;;;;1.87;1.77;;;22.70;99.90;;;;;;5010045;28;20195;-64
2021/08/19 08:32:06;;;;;;;2.40;2.20;;;22.90;99.90;;;;;;5015545;28;20651;-64
2021/08/19 08:34:35;;;;;;;2.00;1.90;;;23.10;99.90;;;;;;5000508;28;20513;-64
2021/08/19 08:37:00;;;;;;;1.70;1.60;;;23.30;99.90;;;;;;4996367;28;20419;-64
2021/08/19 08:39:27;;;;;;;2.63;2.00;;;23.10;99.90;;;;;;4995457;28;20480;-64
2021/08/19 08:41:53;;;;;;;2.07;1.97;;;23.10;99.90;;;;;;4995760;28;20206;-64
2021/08/19 08:44:20;;;;;;;3.50;2.27;;;23.10;99.90;;;;;;4995629;28;20427;-64
2021/08/19 08:46:46;;;;;;;1.87;1.77;;;23.30;99.90;;;;;;4995693;28;20665;-64
2021/08/19 08:49:13;;;;;;;2.43;1.63;;;23.20;99.90;;;;;;4995001;28;20753;-64
2021/08/19 08:51:41;;;;;;;2.00;1.90;;;23.30;99.90;;;;;;4995505;28;20438;-65
2021/08/19 08:54:08;;;;;;;1.90;1.80;;;23.10;99.90;;;;;;4995489;28;20443;-65
2021/08/19 08:56:34;;;;;;;1.87;1.60;;;23.20;99.90;;;;;;4995692;28;20999;-64
2021/08/19 08:59:00;;;;;;;2.03;1.73;;;23.40;99.90;;;;;;4995364;28;20423;-64
2021/08/19 09:01:26;;;;;;;2.80;2.10;;;23.70;99.90;;;;;;4996434;28;20841;-64
2021/08/19 09:03:51;;;;;;;1.90;1.80;;;23.70;99.90;;;;;;4995530;28;20433;-65
2021/08/19 09:06:32;;;;;;;2.00;1.90;;;23.60;99.90;;;;;;4995367;28;20533;-65
2021/08/19 09:08:58;;;;;;;2.50;2.00;;;23.40;99.90;;;;;;4994639;28;20253;-64
2021/08/19 09:11:23;;;;;;;2.10;1.90;;;23.30;99.90;;;;;;4995375;28;20443;-64
2021/08/19 09:13:49;;;;;;;2.00;1.90;;;23.20;99.90;;;;;;4995122;28;20668;-65
2021/08/19 09:16:19;;;;;;;2.37;2.17;;;23.30;99.90;;;;;;4995215;28;20578;-64
2021/08/19 09:18:45;;;;;;;2.33;2.10;;;23.40;99.90;;;;;;4994868;28;20179;-64
2021/08/19 09:21:24;;;;;;;2.57;1.87;;;23.70;99.90;;;;;;4996039;28;20453;-64
2021/08/19 09:24:16;;;;;;;1.87;1.77;;;23.80;99.90;;;;;;4994902;28;20426;-65
2021/08/19 09:26:42;;;;;;;2.30;2.10;;;24.00;99.90;;;;;;4995031;28;20421;-64
2021/08/19 09:29:29;;;;;;;2.00;1.90;;;23.50;99.90;;;;;;4994459;28;20458;-65
2021/08/19 09:32:07;;;;;;;2.03;1.80;;;22.80;99.90;;;;;;4996108;28;20516;-64
2021/08/19 09:34:33;;;;;;;1.33;1.23;;;22.60;99.90;;;;;;4994779;28;20932;-64
2021/08/19 09:37:01;;;;;;;1.80;1.70;;;22.30;99.90;;;;;;4994900;28;20488;-64
2021/08/19 09:39:42;;;;;;;2.40;2.30;;;22.00;99.90;;;;;;4994389;28;20422;-64
2021/08/19 09:42:08;;;;;;;5.60;1.90;;;21.90;99.90;;;;;;4994139;28;20561;-65
2021/08/19 09:44:40;;;;;;;3.73;1.83;;;22.00;99.90;;;;;;4993262;28;20792;-64
2021/08/19 09:47:26;;;;;;;2.20;2.00;;;22.10;99.90;;;;;;4994663;28;20963;-64
2021/08/19 09:50:08;;;;;;;2.10;1.80;;;22.10;99.90;;;;;;4994347;28;20426;-65
2021/08/19 09:52:33;;;;;;;1.83;1.73;;;22.70;99.90;;;;;;4994939;28;20435;-64
2021/08/19 09:55:25;;;;;;;2.10;1.93;;;23.20;99.90;;;;;;4994541;28;20472;-64
2021/08/19 09:57:53;;;;;;;1.77;1.67;;;23.60;99.90;;;;;;4994544;28;20168;-64
2021/08/19 10:00:32;;;;;;;1.60;1.50;;;23.70;99.90;;;;;;4995070;28;20514;-65
2021/08/19 10:02:59;;;;;;;1.70;1.60;;;23.80;99.90;;;;;;4994811;28;20459;-64
2021/08/19 10:05:25;;;;;;;1.83;1.33;;;24.00;99.90;;;;;;4994330;28;20751;-65
2021/08/19 10:07:51;;;;;;;1.53;1.30;;;24.40;99.90;;;;;;4994206;28;20956;-65
2021/08/19 10:10:17;;;;;;;1.73;1.20;;;24.60;99.90;;;;;;4993930;28;20433;-65
2021/08/19 10:12:45;;;;;;;1.40;1.30;;;24.90;99.90;;;;;;4994105;28;20820;-65
2021/08/19 10:15:11;;;;;;;2.30;1.23;;;24.90;99.90;;;;;;4994003;28;20478;-64
2021/08/19 10:17:41;;;;;;;1.30;1.20;;;24.60;99.90;;;;;;5009451;28;20973;-66
2021/08/19 10:20:10;;;;;;;1.57;1.40;;;24.40;99.90;;;;;;5013290;28;20582;-65
2021/08/19 10:22:36;;;;;;;1.33;1.23;;;24.50;99.90;;;;;;5013559;28;20445;-65
2021/08/19 10:25:05;;;;;;;1.77;1.43;;;24.40;99.90;;;;;;5011842;28;20943;-65
2021/08/19 10:27:31;;;;;;;1.17;1.10;;;24.40;99.90;;;;;;5013814;28;20448;-66
2021/08/19 10:30:06;;;;;;;1.70;1.60;;;24.40;99.90;;;;;;5012831;28;20461;-66
2021/08/19 10:32:38;;;;;;;1.70;1.50;;;24.60;99.90;;;;;;5013327;28;20487;-65
2021/08/19 10:35:09;;;;;;;1.40;1.30;;;24.80;99.90;;;;;;5011362;28;20825;-65
2021/08/19 10:37:47;;;;;;;3.63;1.80;;;25.10;99.90;;;;;;4997155;28;20469;-66
2021/08/19 10:40:25;;;;;;;2.37;1.73;;;25.60;99.90;;;;;;4993318;28;20500;-66
2021/08/19 10:42:55;;;;;;;1.60;1.50;;;25.70;99.60;;;;;;4998037;28;20454;-65
2021/08/19 10:45:27;;;;;;;2.17;1.60;;;25.80;99.70;;;;;;5004229;28;20443;-66
2021/08/19 10:48:05;;;;;;;1.20;1.10;;;25.90;98.40;;;;;;4993207;28;20455;-66
2021/08/19 10:50:33;;;;;;;3.50;1.80;;;26.20;98.50;;;;;;4992951;28;20427;-65
2021/08/19 10:53:13;;;;;;;1.63;1.50;;;26.00;98.50;;;;;;4996035;28;20427;-66
2021/08/19 10:55:47;;;;;;;1.33;1.10;;;25.70;98.10;;;;;;4996997;28;20434;-66
2021/08/19 10:58:35;;;;;;;1.30;1.23;;;26.10;97.90;;;;;;4993456;28;20832;-67
2021/08/19 11:01:21;;;;;;;1.47;1.20;;;26.60;97.20;;;;;;4992853;28;20450;-66
2021/08/19 11:03:52;;;;;;;1.57;1.43;;;27.30;96.40;;;;;;4996566;28;20439;-66
2021/08/19 11:06:45;;;;;;;1.73;1.33;;;27.40;95.40;;;;;;4993130;28;20505;-66
2021/08/19 11:09:15;;;;;;;2.00;1.87;;;27.00;95.50;;;;;;5001097;28;21011;-66
2021/08/19 11:11:41;;;;;;;1.87;1.77;;;26.60;95.20;;;;;;4992788;28;20482;-65
2021/08/19 11:14:17;;;;;;;2.13;1.30;;;26.90;95.20;;;;;;4992825;28;20466;-66
2021/08/19 11:16:52;;;;;;;1.47;1.37;;;26.70;94.70;;;;;;4989207;28;20175;-66
2021/08/19 11:19:20;;;;;;;4.00;3.70;;;26.60;95.30;;;;;;4992789;28;21058;-64
2021/08/19 11:22:03;;;;;;;1.60;1.50;;;26.30;96.20;;;;;;4993021;28;20442;-65
2021/08/19 11:24:34;;;;;;;1.60;1.50;;;25.40;97.30;;;;;;4992978;28;20835;-65
2021/08/19 11:27:04;;;;;;;1.77;1.67;;;25.30;98.10;;;;;;4993031;28;20427;-65
2021/08/19 11:29:31;;;;;;;2.30;1.90;;;24.80;98.90;;;;;;4992608;28;20462;-64
2021/08/19 11:32:00;;;;;;;1.70;1.60;;;24.60;99.20;;;;;;4993127;28;20438;-65
2021/08/19 11:34:26;;;;;;;1.97;1.87;;;24.80;99.80;;;;;;4991473;28;20422;-65
2021/08/19 11:36:52;;;;;;;3.47;1.60;;;25.00;99.90;;;;;;4992772;28;20919;-65
2021/08/19 11:39:26;;;;;;;1.80;1.40;;;25.20;99.20;;;;;;4992427;28;20179;-64
2021/08/19 11:41:59;;;;;;;1.47;1.37;;;25.50;99.20;;;;;;4992673;28;20521;-65
2021/08/19 11:44:24;;;;;;;1.70;1.60;;;25.50;98.50;;;;;;4992497;28;20550;-64
2021/08/19 11:46:57;;;;;;;2.60;1.70;;;25.60;98.50;;;;;;4992635;28;20525;-66
2021/08/19 11:49:22;;;;;;;2.07;1.87;;;25.90;98.20;;;;;;4992218;28;20195;-66
2021/08/19 11:51:58;;;;;;;2.80;1.80;;;25.90;97.20;;;;;;4992487;28;20449;-65
2021/08/19 11:54:37;;;;;;;1.70;1.60;;;26.30;96.90;;;;;;4992551;28;20254;-65
2021/08/19 11:57:03;;;;;;;3.63;1.53;;;26.40;96.90;;;;;;4992562;28;20418;-66
2021/08/19 11:59:28;;;;;;;1.63;1.53;;;26.20;97.10;;;;;;4991975;28;20426;-65
2021/08/19 12:01:55;;;;;;;1.50;1.40;;;26.00;96.90;;;;;;4992500;28;20215;-65
2021/08/19 12:04:28;;;;;;;2.57;2.47;;;25.90;97.40;;;;;;4993891;28;20222;-65
2021/08/19 12:06:56;;;;;;;1.83;1.73;;;26.00;97.30;;;;;;4996309;28;21036;-65
2021/08/19 12:09:22;;;;;;;2.50;2.30;;;26.20;97.00;;;;;;4996421;28;20493;-65
2021/08/19 12:11:49;;;;;;;2.37;1.63;;;26.30;96.70;;;;;;4995222;28;20548;-65
2021/08/19 12:14:15;;;;;;;1.70;1.47;;;26.00;96.20;;;;;;5004779;28;20439;-65
2021/08/19 12:16:51;;;;;;;2.10;1.80;;;26.20;96.30;;;;;;5015017;28;20438;-66
2021/08/19 12:19:23;;;;;;;2.00;1.80;;;26.10;96.20;;;;;;4997895;28;20433;-65
2021/08/19 12:21:51;;;;;;;1.53;1.43;;;25.90;96.60;;;;;;4996179;28;20469;-65
2021/08/19 12:24:41;;;;;;;1.80;1.70;;;26.00;96.90;;;;;;4997174;28;20462;-65
2021/08/19 12:27:20;;;;;;;1.73;1.40;;;25.80;96.90;;;;;;4989962;28;20489;-65
2021/08/19 12:29:50;;;;;;;1.90;1.80;;;25.70;97.20;;;;;;4995698;28;20456;-65
2021/08/19 12:32:36;;;;;;;1.90;1.80;;;25.20;97.70;;;;;;4994653;28;20446;-65
2021/08/19 12:35:11;;;;;;;1.97;1.87;;;25.30;97.70;;;;;;4995729;28;20443;-64
2021/08/19 12:37:38;;;;;;;1.60;1.50;;;24.80;98.10;;;;;;4994691;28;20422;-65
2021/08/19 12:40:15;;;;;;;1.43;1.30;;;24.40;98.10;;;;;;4995488;28;20487;-65
2021/08/19 12:42:42;;;;;;;2.00;1.57;;;24.20;98.30;;;;;;4995640;28;20441;-66
2021/08/19 12:45:16;;;;;;;1.90;1.80;;;24.30;98.90;;;;;;4995782;28;20415;-65
2021/08/19 12:47:44;;;;;;;2.43;1.70;;;24.20;99.20;;;;;;4995568;28;20605;-65
2021/08/19 12:50:15;;;;;;;2.20;2.03;;;24.30;99.80;;;;;;4995397;28;20794;-66